KLND/LND METAR and TAF weather

Enter ICAO airport designator
Station Type Date Time Source
KLND METAR 2019/12/06 01:53 UTC NOAA

KLND 060153Z AUTO 35005KT 7SM CLR M08/M09 A3015 RMK AO2 SLP264 T10781089


Station Type Date Time Source
KLND Decoded METAR 2019/12/06 01:53 UTC NOAA

LANDER HUNT FIELD, WY, United States (KLND) 42-49N 108-44W 1694M
Dec 05, 2019 - 08:53 PM EST / 2019.12.06 0153 UTC
Wind: from the N (350 degrees) at 6 MPH (5 KT):0
Visibility: 7 mile(s):0
Sky conditions: clear
Temperature: 18.0 F (-7.8 C)
Windchill: 10 F (-12 C):1
Dew Point: 16.0 F (-8.9 C)
Relative Humidity: 91%
Pressure (altimeter): 30.15 in. Hg (1020 hPa)
ob: KLND 060153Z AUTO 35005KT 7SM CLR M08/M09 A3015 RMK AO2 SLP264 T10781089
cycle: 2

Station Type Date Time Source
KLND TAF 2019/12/05 18:39 UTC NOAA

TAF KLND 051737Z 0518/0618 VRB04KT P6SM FEW120 BKN200
FM061300 VRB04KT P6SM FEW250

Example: see airport list